CheckWX is a tool to help pilots better visualize weather data.  It is not intended as a substitute for an official pre-flight weather briefing.

08:13:14 UTC

KSLH METAR
Cheboygan County Airport
Cheboygan, Michigan, USA
Current

17 mins ago

KSLH 220756Z AUTO 27004KT 10SM OVC034 M03/M06 A3031 RMK AO2 T10321058
Observed
Feb-22 @ 07:56 UTC
Wind
  • 270° at 4 KTS
Visibility
10 SM
Flight Rules
VFR
Cloud Levels
  • Overcast at 3,400' AGL
Temperature
-3°C / 27°F
Dewpoint
-6°C / 21°F
Humidity
80%
Altimeter
30.31" Hg
Pressure
1026.42 hPa
Previous

38 mins ago

KSLH 220735Z AUTO 27003KT 10SM OVC036 M03/M06 A3030 RMK AO2 T10321060
Observed
Feb-22 @ 07:35 UTC
Wind
  • 270° at 3 KTS
Visibility
10 SM
Flight Rules
VFR
Cloud Levels
  • Overcast at 3,600' AGL
Temperature
-3°C / 27°F
Dewpoint
-6°C / 21°F
Humidity
80%
Altimeter
30.3" Hg
Pressure
1026.12 hPa
Previous

57 mins ago

KSLH 220716Z AUTO 26003KT 10SM OVC036 M03/M06 A3029 RMK AO2 T10321060
Observed
Feb-22 @ 07:16 UTC
Wind
  • 260° at 3 KTS
Visibility
10 SM
Flight Rules
VFR
Cloud Levels
  • Overcast at 3,600' AGL
Temperature
-3°C / 27°F
Dewpoint
-6°C / 21°F
Humidity
80%
Altimeter
30.29" Hg
Pressure
1025.72 hPa